createdAt,value
2023-05-29T00:00:43.308Z,998.87
2023-05-29T00:01:43.304Z,998.87
2023-05-29T00:02:43.394Z,998.87
2023-05-29T00:03:43.450Z,998.88
2023-05-29T00:04:43.282Z,998.88
2023-05-29T00:05:43.245Z,998.89
2023-05-29T00:06:43.306Z,998.89
2023-05-29T00:07:43.218Z,998.89
2023-05-29T00:08:43.217Z,998.88
2023-05-29T00:09:43.211Z,998.87
2023-05-29T00:10:43.218Z,998.86
2023-05-29T00:11:43.194Z,998.85
2023-05-29T00:12:43.174Z,998.84
2023-05-29T00:13:43.206Z,998.83
2023-05-29T00:14:43.152Z,998.84
2023-05-29T00:15:43.174Z,998.86
2023-05-29T00:16:43.190Z,998.87
2023-05-29T00:17:43.135Z,998.88
2023-05-29T00:18:43.111Z,998.88
2023-05-29T00:19:43.097Z,998.89
2023-05-29T00:20:43.152Z,998.91
2023-05-29T00:21:43.068Z,998.90
2023-05-29T00:22:43.083Z,998.91
2023-05-29T00:23:43.665Z,998.94
2023-05-29T00:24:43.069Z,998.95
2023-05-29T00:25:43.064Z,998.95
2023-05-29T00:26:43.031Z,998.96
2023-05-29T00:27:43.019Z,998.96
2023-05-29T00:28:43.024Z,998.96
2023-05-29T00:29:43.005Z,998.97
2023-05-29T00:30:42.984Z,998.96
2023-05-29T00:31:43.018Z,998.94
2023-05-29T00:32:43.009Z,998.93
2023-05-29T00:33:42.953Z,998.91
2023-05-29T00:34:42.968Z,998.90
2023-05-29T00:35:42.922Z,998.90
2023-05-29T00:36:42.938Z,998.90
2023-05-29T00:37:42.902Z,998.90
2023-05-29T00:38:42.918Z,998.89
2023-05-29T00:39:42.911Z,998.89
2023-05-29T00:40:42.889Z,998.89
2023-05-29T00:41:42.858Z,998.87
2023-05-29T00:42:42.866Z,998.88
2023-05-29T00:43:42.856Z,998.88
2023-05-29T00:44:42.837Z,998.89
2023-05-29T00:45:42.861Z,998.90
2023-05-29T00:46:42.867Z,998.92
2023-05-29T00:47:42.936Z,998.91
2023-05-29T00:48:42.812Z,998.91
2023-05-29T00:49:42.804Z,998.92
2023-05-29T00:50:42.773Z,998.93
2023-05-29T00:51:42.751Z,998.94
2023-05-29T00:52:42.761Z,998.95
2023-05-29T00:53:42.766Z,998.97
2023-05-29T00:54:42.727Z,998.98
2023-05-29T00:55:42.720Z,998.99
2023-05-29T00:56:42.707Z,998.99
2023-05-29T00:57:42.717Z,998.99
2023-05-29T00:58:42.711Z,998.98
2023-05-29T00:59:42.706Z,998.97
2023-05-29T01:00:42.661Z,998.97
2023-05-29T01:01:42.679Z,998.98
2023-05-29T01:02:42.709Z,999.00
2023-05-29T01:03:42.660Z,999.02
2023-05-29T01:04:42.623Z,999.04
2023-05-29T01:05:42.605Z,999.05
2023-05-29T01:06:42.629Z,999.06
2023-05-29T01:07:42.614Z,999.07
2023-05-29T01:08:42.580Z,999.06
2023-05-29T01:09:42.560Z,999.07
2023-05-29T01:10:42.555Z,999.07
2023-05-29T01:11:42.569Z,999.08
2023-05-29T01:12:42.546Z,999.10
2023-05-29T01:13:42.526Z,999.11
2023-05-29T01:14:42.514Z,999.13
2023-05-29T01:15:42.516Z,999.15
2023-05-29T01:16:42.515Z,999.17
2023-05-29T01:17:42.485Z,999.18
2023-05-29T01:18:42.476Z,999.17
2023-05-29T01:19:42.456Z,999.17
2023-05-29T01:20:42.546Z,999.17
2023-05-29T01:21:42.448Z,999.15
2023-05-29T01:22:42.435Z,999.15
2023-05-29T01:23:42.406Z,999.16
2023-05-29T01:24:42.404Z,999.17
2023-05-29T01:25:42.408Z,999.17
2023-05-29T01:26:42.390Z,999.16
2023-05-29T01:27:42.390Z,999.16
2023-05-29T01:28:42.363Z,999.16
2023-05-29T01:29:42.345Z,999.16
2023-05-29T01:30:42.375Z,999.15
2023-05-29T01:31:42.465Z,999.16
2023-05-29T01:32:42.386Z,999.16
2023-05-29T01:33:42.316Z,999.17
2023-05-29T01:34:42.333Z,999.17
2023-05-29T01:35:42.317Z,999.18
2023-05-29T01:36:42.316Z,999.19
2023-05-29T01:37:42.280Z,999.19
2023-05-29T01:38:42.258Z,999.17
2023-05-29T01:39:42.265Z,999.16
2023-05-29T01:40:42.241Z,999.14
2023-05-29T01:41:42.214Z,999.13
2023-05-29T01:42:42.223Z,999.12
2023-05-29T01:43:42.222Z,999.12
2023-05-29T01:44:42.215Z,999.11
2023-05-29T01:45:42.174Z,999.11
2023-05-29T01:46:42.228Z,999.12
2023-05-29T01:47:42.166Z,999.13
2023-05-29T01:48:42.174Z,999.13
2023-05-29T01:49:42.136Z,999.16
2023-05-29T01:50:42.130Z,999.17
2023-05-29T01:51:42.120Z,999.19
2023-05-29T01:52:42.103Z,999.21
2023-05-29T01:53:42.103Z,999.23
2023-05-29T01:54:42.086Z,999.24
2023-05-29T01:55:42.070Z,999.25
2023-05-29T01:56:42.067Z,999.26
2023-05-29T01:57:42.065Z,999.27
2023-05-29T01:58:42.213Z,999.27
2023-05-29T01:59:42.032Z,999.29
2023-05-29T02:00:42.037Z,999.31
2023-05-29T02:01:42.020Z,999.31
2023-05-29T02:02:42.157Z,999.33
2023-05-29T02:03:42.002Z,999.33
2023-05-29T02:04:41.989Z,999.33
2023-05-29T02:05:41.970Z,999.33
2023-05-29T02:06:41.957Z,999.35
2023-05-29T02:07:41.953Z,999.37
2023-05-29T02:08:41.951Z,999.40
2023-05-29T02:09:41.924Z,999.40
2023-05-29T02:10:41.933Z,999.42
2023-05-29T02:11:41.915Z,999.41
2023-05-29T02:12:42.383Z,999.40
2023-05-29T02:13:41.894Z,999.39
2023-05-29T02:14:41.877Z,999.37
2023-05-29T02:15:41.889Z,999.38
2023-05-29T02:16:41.921Z,999.39
2023-05-29T02:17:41.952Z,999.38
2023-05-29T02:18:41.846Z,999.39
2023-05-29T02:19:41.816Z,999.41
2023-05-29T02:20:41.897Z,999.42
2023-05-29T02:21:41.817Z,999.42
2023-05-29T02:22:41.787Z,999.41
2023-05-29T02:23:41.782Z,999.41
2023-05-29T02:24:41.758Z,999.40
2023-05-29T02:25:41.772Z,999.41
2023-05-29T02:26:41.864Z,999.43
2023-05-29T02:27:41.769Z,999.45
2023-05-29T02:28:41.779Z,999.47
2023-05-29T02:29:41.743Z,999.48
2023-05-29T02:30:41.748Z,999.49
2023-05-29T02:31:41.687Z,999.47
2023-05-29T02:32:41.799Z,999.46
2023-05-29T02:33:41.808Z,999.44
2023-05-29T02:34:41.702Z,999.43
2023-05-29T02:35:41.749Z,999.44
2023-05-29T02:36:41.645Z,999.47
2023-05-29T02:37:41.629Z,999.50
2023-05-29T02:38:41.585Z,999.52
2023-05-29T02:39:41.561Z,999.55
2023-05-29T02:40:41.587Z,999.55
2023-05-29T02:41:41.592Z,999.56
2023-05-29T02:42:41.592Z,999.55
2023-05-29T02:43:41.560Z,999.55
2023-05-29T02:44:41.571Z,999.57
2023-05-29T02:45:41.543Z,999.59
2023-05-29T02:46:41.642Z,999.62
2023-05-29T02:47:41.522Z,999.64
2023-05-29T02:48:41.517Z,999.66
2023-05-29T02:49:41.473Z,999.66
2023-05-29T02:50:41.455Z,999.68
2023-05-29T02:51:41.421Z,999.67
2023-05-29T02:52:41.431Z,999.67
2023-05-29T02:53:41.447Z,999.68
2023-05-29T02:54:41.414Z,999.68
2023-05-29T02:55:41.378Z,999.69
2023-05-29T02:56:41.372Z,999.71
2023-05-29T02:57:41.381Z,999.71
2023-05-29T02:58:41.380Z,999.73
2023-05-29T02:59:41.340Z,999.74
2023-05-29T03:00:41.324Z,999.75
2023-05-29T03:01:41.354Z,999.77
2023-05-29T03:02:41.383Z,999.78
2023-05-29T03:03:41.405Z,999.79
2023-05-29T03:04:41.292Z,999.79
2023-05-29T03:05:41.276Z,999.79
2023-05-29T03:06:41.264Z,999.80
2023-05-29T03:07:41.298Z,999.80
2023-05-29T03:08:41.287Z,999.82
2023-05-29T03:09:41.238Z,999.83
2023-05-29T03:10:41.225Z,999.86
2023-05-29T03:11:41.224Z,999.86
2023-05-29T03:12:41.221Z,999.88
2023-05-29T03:13:41.194Z,999.89
2023-05-29T03:14:41.199Z,999.88
2023-05-29T03:15:41.195Z,999.88
2023-05-29T03:16:41.169Z,999.88
2023-05-29T03:17:41.195Z,999.87
2023-05-29T03:18:41.142Z,999.87
2023-05-29T03:19:41.124Z,999.85
2023-05-29T03:20:41.160Z,999.86
2023-05-29T03:21:41.130Z,999.86
2023-05-29T03:22:41.116Z,999.87
2023-05-29T03:23:41.111Z,999.89
2023-05-29T03:24:41.079Z,999.90
2023-05-29T03:25:41.062Z,999.91
2023-05-29T03:26:41.077Z,999.91
2023-05-29T03:27:41.066Z,999.91
2023-05-29T03:28:41.034Z,999.92
2023-05-29T03:29:41.025Z,999.93
2023-05-29T03:30:41.018Z,999.94
2023-05-29T03:31:41.054Z,999.94
2023-05-29T03:32:41.089Z,999.93
2023-05-29T03:33:40.974Z,999.92
2023-05-29T03:34:40.976Z,999.90
2023-05-29T03:35:40.965Z,999.89
2023-05-29T03:36:40.960Z,999.90
2023-05-29T03:37:40.941Z,999.90
2023-05-29T03:38:40.925Z,999.92
2023-05-29T03:39:40.951Z,999.94
2023-05-29T03:40:40.934Z,999.95
2023-05-29T03:41:40.899Z,999.95
2023-05-29T03:42:40.885Z,999.94
2023-05-29T03:43:40.872Z,999.93
2023-05-29T03:44:40.884Z,999.92
2023-05-29T03:45:40.876Z,999.92
2023-05-29T03:46:40.921Z,999.93
2023-05-29T03:47:40.848Z,999.93
2023-05-29T03:48:40.825Z,999.94
2023-05-29T03:49:40.842Z,999.95
2023-05-29T03:50:40.841Z,999.95
2023-05-29T03:51:40.788Z,999.94
2023-05-29T03:52:40.780Z,999.94
2023-05-29T03:53:40.775Z,999.95
2023-05-29T03:54:40.787Z,999.95
2023-05-29T03:55:40.746Z,999.96
2023-05-29T03:56:40.741Z,999.96
2023-05-29T03:57:40.724Z,999.96
2023-05-29T03:58:40.721Z,999.96
2023-05-29T03:59:40.722Z,999.96
2023-05-29T04:00:40.714Z,999.96
2023-05-29T04:01:40.717Z,999.96
2023-05-29T04:02:40.758Z,999.97
2023-05-29T04:03:40.736Z,999.96
2023-05-29T04:04:40.701Z,999.96
2023-05-29T04:05:40.666Z,999.97
2023-05-29T04:06:40.638Z,999.98
2023-05-29T04:07:40.625Z,999.99
2023-05-29T04:08:40.623Z,1000.01
2023-05-29T04:09:40.599Z,1000.03
2023-05-29T04:10:40.606Z,1000.05
2023-05-29T04:11:40.604Z,1000.07
2023-05-29T04:12:40.561Z,1000.08
2023-05-29T04:13:40.569Z,1000.10
2023-05-29T04:14:40.555Z,1000.12
2023-05-29T04:15:40.552Z,1000.14
2023-05-29T04:16:40.547Z,1000.15
2023-05-29T04:17:40.565Z,1000.16
2023-05-29T04:18:40.524Z,1000.17
2023-05-29T04:19:40.501Z,1000.18
2023-05-29T04:20:40.554Z,1000.20
2023-05-29T04:21:40.481Z,1000.20
2023-05-29T04:22:40.485Z,1000.20
2023-05-29T04:23:40.457Z,1000.21
2023-05-29T04:24:40.434Z,1000.22
2023-05-29T04:25:40.430Z,1000.22
2023-05-29T04:26:40.432Z,1000.23
2023-05-29T04:27:40.430Z,1000.24
2023-05-29T04:28:40.386Z,1000.26
2023-05-29T04:29:40.388Z,1000.28
2023-05-29T04:30:40.470Z,1000.28
2023-05-29T04:31:40.423Z,1000.29
2023-05-29T04:32:40.400Z,1000.29
2023-05-29T04:33:40.356Z,1000.29
2023-05-29T04:34:40.333Z,1000.30
2023-05-29T04:35:40.318Z,1000.31
2023-05-29T04:36:40.432Z,1000.32
2023-05-29T04:37:40.305Z,1000.32
2023-05-29T04:38:40.308Z,1000.33
2023-05-29T04:39:40.284Z,1000.35
2023-05-29T04:40:40.256Z,1000.37
2023-05-29T04:41:40.267Z,1000.38
2023-05-29T04:42:40.248Z,1000.39
2023-05-29T04:43:40.231Z,1000.40
2023-05-29T04:44:40.225Z,1000.41
2023-05-29T04:45:40.230Z,1000.40
2023-05-29T04:46:40.264Z,1000.39
2023-05-29T04:47:40.191Z,1000.38
2023-05-29T04:48:40.176Z,1000.39
2023-05-29T04:49:40.252Z,1000.41
2023-05-29T04:50:40.196Z,1000.42
2023-05-29T04:51:40.156Z,1000.44
2023-05-29T04:52:40.136Z,1000.44
2023-05-29T04:53:40.128Z,1000.44
2023-05-29T04:54:40.111Z,1000.43
2023-05-29T04:55:40.128Z,1000.42
2023-05-29T04:56:40.102Z,1000.42
2023-05-29T04:57:40.101Z,1000.41
2023-05-29T04:58:40.068Z,1000.42
2023-05-29T04:59:40.082Z,1000.42
2023-05-29T05:00:40.065Z,1000.42
2023-05-29T05:01:40.054Z,1000.43
2023-05-29T05:02:40.051Z,1000.44
2023-05-29T05:03:40.062Z,1000.44
2023-05-29T05:04:40.042Z,1000.46
2023-05-29T05:05:40.003Z,1000.45
2023-05-29T05:06:40.005Z,1000.47
2023-05-29T05:07:40.003Z,1000.47
2023-05-29T05:08:39.968Z,1000.49
2023-05-29T05:09:39.982Z,1000.49
2023-05-29T05:10:39.948Z,1000.50
2023-05-29T05:11:39.939Z,1000.51
2023-05-29T05:12:39.925Z,1000.52
2023-05-29T05:13:39.933Z,1000.54
2023-05-29T05:14:39.914Z,1000.55
2023-05-29T05:15:39.915Z,1000.54
2023-05-29T05:16:39.928Z,1000.55
2023-05-29T05:17:39.912Z,1000.55
2023-05-29T05:18:39.875Z,1000.56
2023-05-29T05:19:39.856Z,1000.55
2023-05-29T05:20:39.877Z,1000.56
2023-05-29T05:21:39.831Z,1000.56
2023-05-29T05:22:39.810Z,1000.55
2023-05-29T05:23:53.179Z,1000.56
2023-05-29T05:24:39.797Z,1000.55
2023-05-29T05:25:39.798Z,1000.55
2023-05-29T05:26:39.777Z,1000.55
2023-05-29T05:27:39.798Z,1000.54
2023-05-29T05:28:40.009Z,1000.54
2023-05-29T05:29:39.753Z,1000.54
2023-05-29T05:30:39.743Z,1000.54
2023-05-29T05:31:39.765Z,1000.55
2023-05-29T05:32:39.774Z,1000.56
2023-05-29T05:33:39.706Z,1000.56
2023-05-29T05:34:39.686Z,1000.56
2023-05-29T05:35:39.692Z,1000.57
2023-05-29T05:36:39.665Z,1000.58
2023-05-29T05:37:39.676Z,1000.59
2023-05-29T05:38:39.648Z,1000.62
2023-05-29T05:39:39.634Z,1000.63
2023-05-29T05:40:39.619Z,1000.63
2023-05-29T05:41:39.672Z,1000.65
2023-05-29T05:42:39.629Z,1000.65
2023-05-29T05:43:39.604Z,1000.66
2023-05-29T05:44:39.581Z,1000.67
2023-05-29T05:45:39.622Z,1000.68
2023-05-29T05:46:39.684Z,1000.70
2023-05-29T05:47:39.578Z,1000.72
2023-05-29T05:48:39.535Z,1000.73
2023-05-29T05:49:39.545Z,1000.76
2023-05-29T05:50:39.538Z,1000.76
2023-05-29T05:51:39.533Z,1000.77
2023-05-29T05:52:39.501Z,1000.78
2023-05-29T05:53:39.492Z,1000.78
2023-05-29T05:54:39.491Z,1000.77
2023-05-29T05:55:39.947Z,1000.76
2023-05-29T05:56:40.073Z,1000.74
2023-05-29T05:57:39.451Z,1000.74
2023-05-29T05:58:39.450Z,1000.74
2023-05-29T05:59:39.440Z,1000.73
2023-05-29T06:00:39.435Z,1000.75
2023-05-29T06:01:39.406Z,1000.72
2023-05-29T06:02:39.462Z,1000.72
2023-05-29T06:03:39.491Z,1000.72
2023-05-29T06:04:39.447Z,1000.74
2023-05-29T06:05:39.455Z,1000.74
2023-05-29T06:06:39.348Z,1000.76
2023-05-29T06:07:39.356Z,1000.76
2023-05-29T06:08:39.324Z,1000.76
2023-05-29T06:09:39.351Z,1000.77
2023-05-29T06:10:39.333Z,1000.76
2023-05-29T06:11:39.316Z,1000.77
2023-05-29T06:12:39.281Z,1000.78
2023-05-29T06:13:39.281Z,1000.78
2023-05-29T06:14:39.278Z,1000.80
2023-05-29T06:15:39.256Z,1000.81
2023-05-29T06:16:39.251Z,1000.82
2023-05-29T06:17:39.260Z,1000.82
2023-05-29T06:18:39.215Z,1000.82
2023-05-29T06:19:39.236Z,1000.82
2023-05-29T06:20:39.224Z,1000.82
2023-05-29T06:21:39.185Z,1000.82
2023-05-29T06:22:39.192Z,1000.83
2023-05-29T06:23:39.277Z,1000.83
2023-05-29T06:24:39.175Z,1000.84
2023-05-29T06:25:39.187Z,1000.84
2023-05-29T06:26:39.149Z,1000.85
2023-05-29T06:27:39.127Z,1000.85
2023-05-29T06:28:39.139Z,1000.85
2023-05-29T06:29:39.102Z,1000.86
2023-05-29T06:30:39.087Z,1000.87
2023-05-29T06:31:39.107Z,1000.88
2023-05-29T06:32:39.085Z,1000.88
2023-05-29T06:33:39.089Z,1000.88
2023-05-29T06:34:39.092Z,1000.88
2023-05-29T06:35:39.048Z,1000.86
2023-05-29T06:36:39.018Z,1000.85
2023-05-29T06:37:39.261Z,1000.83
2023-05-29T06:38:39.028Z,1000.84
2023-05-29T06:39:39.015Z,1000.83
2023-05-29T06:40:38.994Z,1000.83
2023-05-29T06:41:38.976Z,1000.86
2023-05-29T06:42:38.992Z,1000.88
2023-05-29T06:43:38.952Z,1000.90
2023-05-29T06:44:38.955Z,1000.91
2023-05-29T06:45:38.969Z,1000.90
2023-05-29T06:46:38.981Z,1000.91
2023-05-29T06:47:38.963Z,1000.89
2023-05-29T06:48:38.918Z,1000.87
2023-05-29T06:49:38.895Z,1000.87
2023-05-29T06:50:38.878Z,1000.86
2023-05-29T06:51:38.919Z,1000.85
2023-05-29T06:52:38.885Z,1000.83
2023-05-29T06:53:38.854Z,1000.84
2023-05-29T06:54:38.834Z,1000.85
2023-05-29T06:55:38.824Z,1000.85
2023-05-29T06:56:38.826Z,1000.86
2023-05-29T06:57:38.801Z,1000.85
2023-05-29T06:58:38.788Z,1000.85
2023-05-29T06:59:38.791Z,1000.85
2023-05-29T07:00:38.795Z,1000.84
2023-05-29T07:01:38.863Z,1000.85
2023-05-29T07:02:38.866Z,1000.85
2023-05-29T07:03:38.817Z,1000.87
2023-05-29T07:04:38.760Z,1000.90
2023-05-29T07:05:39.075Z,1000.92
2023-05-29T07:06:38.727Z,1000.92
2023-05-29T07:07:38.702Z,1000.94
2023-05-29T07:08:38.688Z,1000.96
2023-05-29T07:09:38.674Z,1000.97
2023-05-29T07:10:38.707Z,1000.97
2023-05-29T07:11:38.655Z,1000.98
2023-05-29T07:12:38.629Z,1001.00
2023-05-29T07:13:38.632Z,1001.01
2023-05-29T07:14:38.616Z,1001.04
2023-05-29T07:15:38.628Z,1001.05
2023-05-29T07:16:38.626Z,1001.05
2023-05-29T07:17:38.613Z,1001.04
2023-05-29T07:18:38.582Z,1001.04
2023-05-29T07:19:38.578Z,1001.04
2023-05-29T07:20:39.200Z,1001.02
2023-05-29T07:21:38.546Z,1001.01
2023-05-29T07:22:38.544Z,1001.01
2023-05-29T07:23:38.525Z,1001.01
2023-05-29T07:24:38.516Z,1001.02
2023-05-29T07:25:38.509Z,1001.02
2023-05-29T07:26:38.495Z,1001.01
2023-05-29T07:27:38.489Z,1001.01
2023-05-29T07:28:38.456Z,1001.02
2023-05-29T07:29:38.473Z,1001.06
2023-05-29T07:30:38.439Z,1001.06
2023-05-29T07:31:38.489Z,1001.06
2023-05-29T07:32:38.437Z,1001.08
2023-05-29T07:33:38.421Z,1001.09
2023-05-29T07:34:38.407Z,1001.09
2023-05-29T07:35:38.392Z,1001.09
2023-05-29T07:36:38.373Z,1001.08
2023-05-29T07:37:38.379Z,1001.06
2023-05-29T07:38:38.605Z,1001.05
2023-05-29T07:39:38.372Z,1001.02
2023-05-29T07:40:40.778Z,1000.99
2023-05-29T07:41:38.342Z,1001.00
2023-05-29T07:42:38.314Z,1001.02
2023-05-29T07:43:38.326Z,1001.01
2023-05-29T07:44:38.312Z,1001.02
2023-05-29T07:45:38.292Z,1001.02
2023-05-29T07:46:38.312Z,1001.00
2023-05-29T07:47:39.276Z,1001.00
2023-05-29T07:48:38.279Z,1001.00
2023-05-29T07:49:38.242Z,1000.99
2023-05-29T07:50:38.242Z,1000.99
2023-05-29T07:51:38.231Z,1000.98
2023-05-29T07:52:38.230Z,1000.99
2023-05-29T07:53:38.220Z,1000.98
2023-05-29T07:54:38.199Z,1000.98
2023-05-29T07:55:38.183Z,1000.98
2023-05-29T07:56:38.168Z,1000.97
2023-05-29T07:57:38.182Z,1000.98
2023-05-29T07:58:38.141Z,1000.98
2023-05-29T07:59:38.246Z,1000.99
2023-05-29T08:00:38.140Z,1001.00
2023-05-29T08:01:38.144Z,1000.99
2023-05-29T08:02:38.173Z,1001.03
2023-05-29T08:03:38.253Z,1001.05
2023-05-29T08:04:38.134Z,1001.07
2023-05-29T08:05:38.071Z,1001.07
2023-05-29T08:06:38.066Z,1001.08
2023-05-29T08:07:38.077Z,1001.10
2023-05-29T08:08:38.032Z,1001.09
2023-05-29T08:09:38.032Z,1001.09
2023-05-29T08:10:38.009Z,1001.10
2023-05-29T08:11:38.027Z,1001.12
2023-05-29T08:12:37.993Z,1001.13
2023-05-29T08:13:37.987Z,1001.14
2023-05-29T08:14:37.970Z,1001.12
2023-05-29T08:15:37.993Z,1001.12
2023-05-29T08:16:38.005Z,1001.11
2023-05-29T08:17:37.973Z,1001.09
2023-05-29T08:18:37.934Z,1001.10
2023-05-29T08:19:37.921Z,1001.11
2023-05-29T08:20:37.985Z,1001.11
2023-05-29T08:21:37.942Z,1001.10
2023-05-29T08:22:37.935Z,1001.11
2023-05-29T08:23:37.892Z,1001.10
2023-05-29T08:24:37.867Z,1001.10
2023-05-29T08:25:38.050Z,1001.08
2023-05-29T08:26:37.850Z,1001.06
2023-05-29T08:27:37.833Z,1001.06
2023-05-29T08:28:39.642Z,1001.04
2023-05-29T08:29:37.835Z,1001.03
2023-05-29T08:30:37.823Z,1001.03
2023-05-29T08:31:37.842Z,1001.02
2023-05-29T08:32:37.820Z,1001.02
2023-05-29T08:33:37.785Z,1001.01
2023-05-29T08:34:37.799Z,1001.04
2023-05-29T08:35:37.753Z,1001.02
2023-05-29T08:36:37.744Z,1001.05
2023-05-29T08:37:37.779Z,1001.02
2023-05-29T08:38:37.745Z,1001.04
2023-05-29T08:39:37.732Z,1001.05
2023-05-29T08:40:37.694Z,1001.03
2023-05-29T08:41:37.685Z,1001.05
2023-05-29T08:42:37.683Z,1001.04
2023-05-29T08:43:37.685Z,1001.05
2023-05-29T08:44:37.695Z,1001.05
2023-05-29T08:45:37.699Z,1001.07
2023-05-29T08:46:37.677Z,1001.08
2023-05-29T08:47:37.638Z,1001.12
2023-05-29T08:48:37.633Z,1001.11
2023-05-29T08:49:37.613Z,1001.13
2023-05-29T08:50:37.598Z,1001.13
2023-05-29T08:51:37.581Z,1001.15
2023-05-29T08:52:37.574Z,1001.18
2023-05-29T08:53:37.578Z,1001.18
2023-05-29T08:54:37.558Z,1001.17
2023-05-29T08:55:37.557Z,1001.16
2023-05-29T08:56:37.534Z,1001.18
2023-05-29T08:57:37.541Z,1001.16
2023-05-29T08:58:37.577Z,1001.19
2023-05-29T08:59:37.547Z,1001.18
2023-05-29T09:00:37.503Z,1001.17
2023-05-29T09:01:37.589Z,1001.17
2023-05-29T09:02:37.511Z,1001.18
2023-05-29T09:03:37.540Z,1001.19
2023-05-29T09:04:37.456Z,1001.22
2023-05-29T09:05:37.440Z,1001.21
2023-05-29T09:06:37.437Z,1001.19
2023-05-29T09:07:37.435Z,1001.17
2023-05-29T09:08:37.407Z,1001.16
2023-05-29T09:09:37.405Z,1001.15
2023-05-29T09:10:38.961Z,1001.14
2023-05-29T09:11:37.394Z,1001.13
2023-05-29T09:12:37.393Z,1001.13
2023-05-29T09:13:37.361Z,1001.10
2023-05-29T09:14:37.420Z,1001.11
2023-05-29T09:15:37.344Z,1001.15
2023-05-29T09:16:37.360Z,1001.16
2023-05-29T09:17:37.305Z,1001.13
2023-05-29T09:18:37.312Z,1001.13
2023-05-29T09:19:37.307Z,1001.11
2023-05-29T09:20:37.340Z,1001.10
2023-05-29T09:21:37.298Z,1001.10
2023-05-29T09:22:37.261Z,1001.09
2023-05-29T09:23:37.243Z,1001.09
2023-05-29T09:24:37.242Z,1001.09
2023-05-29T09:25:37.254Z,1001.09
2023-05-29T09:26:37.241Z,1001.10
2023-05-29T09:27:37.197Z,1001.11
2023-05-29T09:28:37.205Z,1001.09
2023-05-29T09:29:37.174Z,1001.09
2023-05-29T09:30:37.202Z,1001.10
2023-05-29T09:31:37.236Z,1001.09
2023-05-29T09:32:37.186Z,1001.09
2023-05-29T09:33:37.145Z,1001.09
2023-05-29T09:34:37.169Z,1001.07
2023-05-29T09:35:37.132Z,1001.07
2023-05-29T09:36:37.131Z,1001.07
2023-05-29T09:37:37.111Z,1001.07
2023-05-29T09:39:37.084Z,1001.06
2023-05-29T09:40:37.124Z,1001.08
2023-05-29T09:41:37.046Z,1001.09
2023-05-29T09:42:37.050Z,1001.11
2023-05-29T09:43:37.029Z,1001.11
2023-05-29T09:44:37.043Z,1001.14
2023-05-29T09:45:37.028Z,1001.16
2023-05-29T09:46:37.027Z,1001.17
2023-05-29T09:47:37.044Z,1001.16
2023-05-29T09:48:36.989Z,1001.15
2023-05-29T09:49:36.977Z,1001.14
2023-05-29T09:50:36.962Z,1001.16
2023-05-29T09:51:36.966Z,1001.14
2023-05-29T09:52:36.952Z,1001.13
2023-05-29T09:53:36.941Z,1001.13
2023-05-29T09:54:36.958Z,1001.11
2023-05-29T09:55:36.898Z,1001.10
2023-05-29T09:56:36.897Z,1001.09
2023-05-29T09:57:36.880Z,1001.11
2023-05-29T09:58:36.886Z,1001.09
2023-05-29T09:59:36.877Z,1001.12
2023-05-29T10:00:36.864Z,1001.10
2023-05-29T10:01:36.863Z,1001.08
2023-05-29T10:02:36.883Z,1001.07
2023-05-29T10:03:36.910Z,1001.06
2023-05-29T10:04:36.819Z,1001.05
2023-05-29T10:05:36.796Z,1001.04
2023-05-29T10:06:36.791Z,1001.02
2023-05-29T10:07:36.794Z,1001.00
2023-05-29T10:08:36.808Z,1000.99
2023-05-29T10:09:36.753Z,1001.01
2023-05-29T10:10:36.763Z,1001.00
2023-05-29T10:11:36.733Z,1001.00
2023-05-29T10:12:36.744Z,1001.01
2023-05-29T10:13:36.717Z,1001.02
2023-05-29T10:14:36.704Z,1001.04
2023-05-29T10:15:36.684Z,1001.03
2023-05-29T10:16:36.732Z,1000.99
2023-05-29T10:17:36.708Z,1000.99
2023-05-29T10:18:36.657Z,1000.99
2023-05-29T10:19:36.650Z,1000.98
2023-05-29T10:20:36.742Z,1000.97
2023-05-29T10:21:36.640Z,1000.95
2023-05-29T10:22:36.657Z,1000.96
2023-05-29T10:23:36.604Z,1000.95
2023-05-29T10:24:36.606Z,1000.96
2023-05-29T10:25:36.581Z,1000.98
2023-05-29T10:26:36.620Z,1000.99
2023-05-29T10:27:36.571Z,1000.97
2023-05-29T10:28:36.556Z,1000.97
2023-05-29T10:29:36.545Z,1000.99
2023-05-29T10:30:36.549Z,1000.94
2023-05-29T10:31:36.569Z,1000.94
2023-05-29T10:32:36.550Z,1000.97
2023-05-29T10:33:36.509Z,1001.00
2023-05-29T10:34:36.504Z,1001.00
2023-05-29T10:35:36.494Z,1001.01
2023-05-29T10:36:36.522Z,1000.99
2023-05-29T10:37:36.466Z,1000.97
2023-05-29T10:38:36.453Z,1000.98
2023-05-29T10:39:36.442Z,1000.99
2023-05-29T10:40:36.485Z,1000.94
2023-05-29T10:41:36.416Z,1000.93
2023-05-29T10:42:36.416Z,1000.91
2023-05-29T10:43:36.401Z,1000.89
2023-05-29T10:44:36.391Z,1000.88
2023-05-29T10:45:36.383Z,1000.84
2023-05-29T10:46:36.410Z,1000.82
2023-05-29T10:47:36.408Z,1000.83
2023-05-29T10:48:36.354Z,1000.85
2023-05-29T10:49:36.355Z,1000.82
2023-05-29T10:50:36.382Z,1000.84
2023-05-29T10:51:36.340Z,1000.84
2023-05-29T10:52:36.308Z,1000.83
2023-05-29T10:53:36.291Z,1000.81
2023-05-29T10:54:36.296Z,1000.79
2023-05-29T10:55:36.311Z,1000.80
2023-05-29T10:56:36.262Z,1000.78
2023-05-29T10:57:36.255Z,1000.78
2023-05-29T10:58:36.245Z,1000.79
2023-05-29T10:59:36.234Z,1000.80
2023-05-29T11:00:36.224Z,1000.78
2023-05-29T11:01:36.252Z,1000.81
2023-05-29T11:02:36.254Z,1000.83
2023-05-29T11:03:36.236Z,1000.80
2023-05-29T11:04:36.194Z,1000.78
2023-05-29T11:05:36.160Z,1000.80
2023-05-29T11:06:36.152Z,1000.83
2023-05-29T11:07:36.151Z,1000.84
2023-05-29T11:08:36.174Z,1000.81
2023-05-29T11:09:36.145Z,1000.83
2023-05-29T11:10:36.128Z,1000.80
2023-05-29T11:11:36.108Z,1000.78
2023-05-29T11:12:36.104Z,1000.79
2023-05-29T11:13:36.267Z,1000.76
2023-05-29T11:14:36.093Z,1000.75
2023-05-29T11:15:36.057Z,1000.72
2023-05-29T11:16:36.063Z,1000.73
2023-05-29T11:17:36.084Z,1000.75
2023-05-29T11:18:36.065Z,1000.76
2023-05-29T11:19:36.014Z,1000.77
2023-05-29T11:20:36.077Z,1000.77
2023-05-29T11:21:36.010Z,1000.78
2023-05-29T11:22:36.007Z,1000.77
2023-05-29T11:23:35.971Z,1000.75
2023-05-29T11:24:35.975Z,1000.76
2023-05-29T11:25:35.965Z,1000.78
2023-05-29T11:26:35.990Z,1000.77
2023-05-29T11:27:35.944Z,1000.77
2023-05-29T11:28:35.929Z,1000.73
2023-05-29T11:29:35.915Z,1000.74
2023-05-29T11:30:35.903Z,1000.70
2023-05-29T11:31:36.099Z,1000.70
2023-05-29T11:32:36.283Z,1000.71
2023-05-29T11:33:35.861Z,1000.71
2023-05-29T11:34:35.863Z,1000.70
2023-05-29T11:35:35.853Z,1000.70
2023-05-29T11:36:35.877Z,1000.70
2023-05-29T11:37:35.819Z,1000.71
2023-05-29T11:38:35.827Z,1000.71
2023-05-29T11:39:35.798Z,1000.71
2023-05-29T11:40:35.821Z,1000.72
2023-05-29T11:41:35.795Z,1000.67
2023-05-29T11:42:35.786Z,1000.68
2023-05-29T11:43:35.767Z,1000.66
2023-05-29T11:44:35.754Z,1000.65
2023-05-29T11:45:35.759Z,1000.65
2023-05-29T11:46:35.751Z,1000.62
2023-05-29T11:47:35.780Z,1000.67
2023-05-29T11:48:35.714Z,1000.66
2023-05-29T11:49:35.700Z,1000.64
2023-05-29T11:50:35.707Z,1000.64
2023-05-29T11:51:35.673Z,1000.64
2023-05-29T11:52:35.678Z,1000.64
2023-05-29T11:53:35.652Z,1000.64
2023-05-29T11:54:35.642Z,1000.66
2023-05-29T11:55:35.668Z,1000.67
2023-05-29T11:56:35.631Z,1000.67
2023-05-29T11:57:35.616Z,1000.68
2023-05-29T11:58:35.609Z,1000.70
2023-05-29T11:59:35.635Z,1000.70
2023-05-29T12:00:35.610Z,1000.69
2023-05-29T12:01:35.570Z,1000.69
2023-05-29T12:02:35.639Z,1000.71
2023-05-29T12:03:35.575Z,1000.71
2023-05-29T12:04:35.567Z,1000.69
2023-05-29T12:05:35.558Z,1000.66
2023-05-29T12:06:35.587Z,1000.64
2023-05-29T12:07:35.510Z,1000.62
2023-05-29T12:08:36.413Z,1000.61
2023-05-29T12:09:35.508Z,1000.60
2023-05-29T12:10:35.478Z,1000.61
2023-05-29T12:11:35.654Z,1000.63
2023-05-29T12:12:35.477Z,1000.63
2023-05-29T12:13:35.500Z,1000.63
2023-05-29T12:14:35.456Z,1000.65